createdAt,value
2018-11-01T00:00:15.214Z,0.80
2018-11-01T00:01:15.173Z,0.90
2018-11-01T00:02:15.162Z,1.00
2018-11-01T00:03:15.147Z,0.90
2018-11-01T00:04:15.136Z,0.90
2018-11-01T00:05:15.125Z,0.90
2018-11-01T00:06:15.181Z,0.90
2018-11-01T00:07:15.117Z,0.90
2018-11-01T00:08:15.093Z,0.80
2018-11-01T00:09:15.082Z,0.80
2018-11-01T00:10:15.098Z,0.80
2018-11-01T00:11:15.060Z,1.00
2018-11-01T00:12:15.050Z,1.10
2018-11-01T00:13:15.041Z,0.90
2018-11-01T00:14:15.029Z,0.90
2018-11-01T00:15:15.017Z,0.90
2018-11-01T00:16:15.022Z,0.90
2018-11-01T00:17:14.996Z,0.80
2018-11-01T00:18:15.010Z,0.80
2018-11-01T00:19:14.978Z,0.80
2018-11-01T00:20:14.963Z,1.00
2018-11-01T00:21:14.953Z,0.90
2018-11-01T00:22:14.941Z,1.00
2018-11-01T00:23:14.931Z,0.70
2018-11-01T00:24:14.930Z,0.80
2018-11-01T00:25:14.910Z,0.90
2018-11-01T00:26:14.899Z,1.00
2018-11-01T00:27:14.890Z,0.80
2018-11-01T00:28:14.877Z,1.00
2018-11-01T00:29:14.880Z,0.90
2018-11-01T00:30:14.861Z,1.00
2018-11-01T00:31:14.848Z,0.90
2018-11-01T00:32:14.858Z,0.90
2018-11-01T00:33:14.832Z,0.90
2018-11-01T00:34:14.812Z,0.90
2018-11-01T00:35:14.816Z,1.00
2018-11-01T00:36:14.791Z,0.90
2018-11-01T00:37:14.780Z,1.00
2018-11-01T00:38:14.768Z,0.80
2018-11-01T00:39:14.772Z,0.90
2018-11-01T00:40:14.767Z,1.00
2018-11-01T00:41:14.738Z,1.00
2018-11-01T00:42:14.726Z,0.90
2018-11-01T00:43:14.717Z,0.90
2018-11-01T00:44:14.704Z,1.10
2018-11-01T00:45:14.707Z,1.00
2018-11-01T00:46:14.686Z,0.90
2018-11-01T00:47:14.671Z,1.10
2018-11-01T00:48:14.664Z,1.00
2018-11-01T00:49:14.651Z,1.10
2018-11-01T00:50:14.668Z,1.30
2018-11-01T00:51:14.629Z,1.10
2018-11-01T00:52:14.618Z,1.20
2018-11-01T00:53:14.607Z,0.90
2018-11-01T00:54:14.600Z,1.00
2018-11-01T00:55:14.586Z,0.90
2018-11-01T00:56:14.588Z,1.00
2018-11-01T00:57:14.577Z,1.10
2018-11-01T00:58:14.567Z,0.90
2018-11-01T00:59:14.543Z,1.00
2018-11-01T01:00:14.533Z,0.90
2018-11-01T01:01:14.520Z,0.80
2018-11-01T01:02:14.524Z,0.80
2018-11-01T01:03:14.499Z,0.80
2018-11-01T01:04:14.494Z,0.90
2018-11-01T01:05:14.478Z,0.90
2018-11-01T01:06:14.469Z,1.00
2018-11-01T01:07:14.484Z,0.90
2018-11-01T01:08:14.445Z,1.00
2018-11-01T01:09:14.435Z,1.10
2018-11-01T01:10:14.425Z,0.90
2018-11-01T01:11:14.413Z,0.90
2018-11-01T01:12:14.403Z,1.00
2018-11-01T01:13:14.405Z,0.80
2018-11-01T01:14:14.425Z,0.90
2018-11-01T01:15:14.371Z,0.90
2018-11-01T01:16:14.360Z,1.00
2018-11-01T01:17:14.347Z,0.90
2018-11-01T01:18:14.353Z,1.00
2018-11-01T01:19:14.327Z,0.90
2018-11-01T01:20:14.334Z,0.80
2018-11-01T01:21:14.304Z,0.90
2018-11-01T01:22:14.296Z,0.90
2018-11-01T01:23:14.285Z,0.90
2018-11-01T01:24:14.287Z,0.90
2018-11-01T01:25:14.262Z,0.80
2018-11-01T01:26:14.252Z,0.90
2018-11-01T01:27:14.239Z,1.00
2018-11-01T01:28:14.243Z,1.00
2018-11-01T01:29:14.219Z,1.00
2018-11-01T01:30:14.208Z,0.90
2018-11-01T01:31:14.202Z,1.10
2018-11-01T01:32:14.189Z,0.90
2018-11-01T01:33:14.189Z,1.00
2018-11-01T01:34:14.177Z,1.00
2018-11-01T01:35:14.162Z,1.00
2018-11-01T01:36:14.144Z,0.90
2018-11-01T01:37:14.132Z,1.10
2018-11-01T01:38:14.121Z,0.90
2018-11-01T01:39:14.124Z,1.20
2018-11-01T01:40:14.100Z,1.10
2018-11-01T01:41:14.089Z,1.00
2018-11-01T01:42:14.078Z,1.00
2018-11-01T01:43:14.067Z,1.10
2018-11-01T01:44:14.100Z,0.90
2018-11-01T01:45:14.048Z,1.00
2018-11-01T01:46:14.036Z,1.20
2018-11-01T01:47:14.025Z,1.10
2018-11-01T01:48:14.013Z,0.90
2018-11-01T01:49:14.002Z,1.20
2018-11-01T01:50:14.048Z,1.50
2018-11-01T01:51:13.980Z,0.90
2018-11-01T01:52:14.033Z,1.10
2018-11-01T01:53:13.960Z,1.10
2018-11-01T01:54:13.948Z,0.90
2018-11-01T01:55:13.936Z,1.30
2018-11-01T01:56:13.927Z,1.10
2018-11-01T01:57:13.915Z,1.00
2018-11-01T01:58:13.918Z,1.10
2018-11-01T01:59:13.895Z,1.10
2018-11-01T02:00:13.884Z,1.10
2018-11-01T02:01:13.887Z,0.90
2018-11-01T02:02:13.863Z,1.00
2018-11-01T02:03:13.852Z,1.10
2018-11-01T02:04:13.840Z,1.10
2018-11-01T02:05:13.847Z,1.10
2018-11-01T02:06:13.819Z,1.40
2018-11-01T02:07:13.835Z,1.10
2018-11-01T02:08:13.797Z,1.00
2018-11-01T02:09:13.787Z,1.10
2018-11-01T02:10:13.776Z,1.00
2018-11-01T02:11:13.765Z,1.10
2018-11-01T02:12:13.757Z,1.10
2018-11-01T02:13:13.757Z,1.10
2018-11-01T02:14:13.732Z,1.00
2018-11-01T02:15:13.721Z,1.20
2018-11-01T02:16:19.043Z,1.50
2018-11-01T02:17:13.699Z,1.30
2018-11-01T02:18:13.689Z,1.20
2018-11-01T02:19:13.681Z,1.10
2018-11-01T02:20:13.682Z,1.10
2018-11-01T02:21:13.670Z,1.10
2018-11-01T02:22:13.644Z,1.00
2018-11-01T02:23:13.636Z,1.20
2018-11-01T02:24:13.652Z,1.00
2018-11-01T02:25:13.617Z,1.00
2018-11-01T02:26:13.601Z,1.20
2018-11-01T02:27:13.598Z,0.80
2018-11-01T02:28:13.579Z,0.90
2018-11-01T02:29:13.571Z,1.00
2018-11-01T02:30:13.651Z,1.10
2018-11-01T02:31:13.560Z,0.80
2018-11-01T02:32:13.538Z,0.90
2018-11-01T02:33:13.527Z,0.80
2018-11-01T02:34:13.514Z,1.10
2018-11-01T02:35:13.503Z,1.00
2018-11-01T02:36:13.508Z,0.90
2018-11-01T02:37:13.484Z,0.70
2018-11-01T02:38:13.638Z,0.90
2018-11-01T02:39:13.475Z,0.90
2018-11-01T02:40:13.452Z,0.80
2018-11-01T02:41:13.465Z,0.80
2018-11-01T02:42:13.432Z,0.80
2018-11-01T02:43:13.415Z,0.70
2018-11-01T02:44:13.405Z,0.70
2018-11-01T02:45:13.394Z,0.70
2018-11-01T02:46:13.383Z,0.70
2018-11-01T02:47:13.405Z,0.80
2018-11-01T02:48:13.363Z,0.80
2018-11-01T02:49:13.352Z,0.80
2018-11-01T02:50:13.341Z,0.90
2018-11-01T02:51:13.331Z,0.70
2018-11-01T02:52:13.324Z,0.70
2018-11-01T02:53:13.323Z,0.70
2018-11-01T02:54:13.312Z,0.80
2018-11-01T02:55:13.288Z,0.80
2018-11-01T02:56:13.275Z,0.70
2018-11-01T02:57:13.264Z,0.80
2018-11-01T02:58:13.333Z,0.70
2018-11-01T02:59:13.315Z,0.80
2018-11-01T03:00:13.235Z,0.70
2018-11-01T03:01:13.223Z,0.90
2018-11-01T03:02:13.211Z,0.90
2018-11-01T03:03:13.200Z,0.90
2018-11-01T03:04:13.202Z,1.00
2018-11-01T03:05:13.199Z,0.90
2018-11-01T03:06:13.180Z,0.90
2018-11-01T03:07:13.171Z,0.90
2018-11-01T03:08:13.146Z,0.80
2018-11-01T03:09:13.166Z,0.90
2018-11-01T03:10:13.124Z,0.90
2018-11-01T03:11:13.113Z,0.90
2018-11-01T03:12:13.104Z,1.00
2018-11-01T03:13:13.091Z,0.90
2018-11-01T03:14:13.081Z,0.90
2018-11-01T03:15:13.086Z,0.90
2018-11-01T03:16:13.060Z,1.10
2018-11-01T03:17:13.097Z,1.30
2018-11-01T03:18:13.038Z,1.00
2018-11-01T03:19:13.028Z,1.10
2018-11-01T03:20:13.030Z,1.10
2018-11-01T03:21:13.006Z,1.20
2018-11-01T03:22:13.035Z,1.20
2018-11-01T03:23:12.983Z,1.10
2018-11-01T03:24:12.972Z,1.10
2018-11-01T03:25:12.966Z,1.10
2018-11-01T03:26:12.991Z,1.20
2018-11-01T03:27:12.940Z,1.10
2018-11-01T03:28:12.943Z,1.10
2018-11-01T03:29:12.917Z,1.00
2018-11-01T03:30:12.911Z,1.10
2018-11-01T03:31:12.897Z,0.90
2018-11-01T03:32:12.887Z,1.10
2018-11-01T03:33:12.890Z,1.00
2018-11-01T03:34:12.880Z,1.10
2018-11-01T03:35:12.926Z,1.00
2018-11-01T03:36:12.845Z,0.90
2018-11-01T03:37:12.833Z,1.10
2018-11-01T03:38:12.895Z,1.10
2018-11-01T03:39:12.816Z,1.00
2018-11-01T03:40:12.813Z,1.10
2018-11-01T03:41:12.789Z,1.10
2018-11-01T03:42:12.778Z,1.20
2018-11-01T03:43:12.767Z,1.10
2018-11-01T03:44:12.772Z,1.00
2018-11-01T03:45:12.750Z,1.20
2018-11-01T03:46:12.735Z,1.30
2018-11-01T03:47:12.724Z,1.10
2018-11-01T03:48:12.728Z,1.20
2018-11-01T03:49:12.702Z,1.10
2018-11-01T03:50:12.709Z,1.20
2018-11-01T03:51:12.680Z,1.20
2018-11-01T03:52:12.692Z,1.10
2018-11-01T03:53:12.682Z,1.10
2018-11-01T03:54:12.679Z,1.40
2018-11-01T03:55:12.636Z,1.30
2018-11-01T03:56:12.626Z,1.10
2018-11-01T03:57:12.615Z,1.30
2018-11-01T03:58:12.635Z,1.10
2018-11-01T03:59:12.593Z,1.40
2018-11-01T04:00:12.581Z,1.20
2018-11-01T04:01:12.571Z,1.30
2018-11-01T04:02:12.559Z,1.20
2018-11-01T04:03:12.556Z,1.40
2018-11-01T04:04:12.572Z,1.40
2018-11-01T04:05:12.530Z,1.20
2018-11-01T04:06:12.518Z,1.40
2018-11-01T04:07:12.504Z,1.50
2018-11-01T04:08:12.496Z,1.20
2018-11-01T04:09:12.487Z,1.30
2018-11-01T04:10:12.486Z,1.40
2018-11-01T04:11:12.475Z,1.30
2018-11-01T04:12:12.449Z,1.60
2018-11-01T04:13:12.440Z,1.30
2018-11-01T04:14:12.429Z,1.30
2018-11-01T04:15:12.590Z,1.60
2018-11-01T04:16:12.407Z,1.40
2018-11-01T04:17:12.610Z,1.20
2018-11-01T04:18:12.387Z,1.50
2018-11-01T04:19:12.375Z,1.30
2018-11-01T04:20:12.397Z,1.20
2018-11-01T04:21:12.353Z,1.50
2018-11-01T04:22:12.355Z,1.50
2018-11-01T04:23:12.402Z,1.30
2018-11-01T04:24:12.321Z,1.30
2018-11-01T04:25:12.313Z,1.40
2018-11-01T04:26:12.321Z,1.40
2018-11-01T04:27:12.291Z,1.50
2018-11-01T04:28:12.283Z,1.50
2018-11-01T04:29:12.270Z,1.30
2018-11-01T04:30:12.272Z,1.70
2018-11-01T04:31:12.267Z,1.70
2018-11-01T04:32:12.236Z,1.50
2018-11-01T04:33:12.282Z,1.50
2018-11-01T04:34:12.215Z,1.70
2018-11-01T04:35:12.204Z,1.60
2018-11-01T04:36:12.208Z,1.60
2018-11-01T04:37:12.182Z,1.50
2018-11-01T04:38:12.171Z,1.40
2018-11-01T04:39:12.161Z,1.50
2018-11-01T04:40:12.152Z,1.70
2018-11-01T04:41:12.179Z,1.80
2018-11-01T04:42:12.128Z,1.60
2018-11-01T04:43:12.139Z,1.60
2018-11-01T04:44:12.109Z,1.70
2018-11-01T04:45:12.106Z,1.70
2018-11-01T04:46:12.109Z,1.60
2018-11-01T04:47:12.125Z,1.70
2018-11-01T04:48:12.066Z,1.70
2018-11-01T04:49:12.054Z,1.60
2018-11-01T04:50:12.045Z,2.00
2018-11-01T04:51:12.035Z,1.70
2018-11-01T04:52:12.038Z,1.70
2018-11-01T04:53:12.012Z,1.70
2018-11-01T04:54:12.018Z,1.80
2018-11-01T04:55:11.991Z,1.90
2018-11-01T04:56:11.980Z,1.80
2018-11-01T04:57:11.983Z,1.60
2018-11-01T04:58:11.958Z,1.70
2018-11-01T04:59:11.949Z,1.80
2018-11-01T05:00:11.936Z,1.60
2018-11-01T05:01:11.927Z,1.60
2018-11-01T05:02:11.929Z,1.50
2018-11-01T05:03:11.919Z,1.90
2018-11-01T05:04:11.908Z,1.50
2018-11-01T05:05:11.921Z,1.90
2018-11-01T05:06:11.874Z,1.70
2018-11-01T05:07:11.877Z,1.80
2018-11-01T05:08:11.865Z,1.60
2018-11-01T05:09:11.854Z,1.80
2018-11-01T05:10:11.834Z,1.60
2018-11-01T05:11:11.820Z,1.70
2018-11-01T05:12:11.808Z,1.80
2018-11-01T05:13:11.798Z,2.00
2018-11-01T05:14:11.818Z,1.80
2018-11-01T05:15:11.861Z,1.70
2018-11-01T05:16:11.770Z,1.60
2018-11-01T05:17:11.757Z,1.80
2018-11-01T05:18:11.745Z,1.60
2018-11-01T05:19:11.735Z,1.70
2018-11-01T05:20:11.740Z,2.20
2018-11-01T05:21:11.716Z,1.90
2018-11-01T05:22:11.701Z,1.70
2018-11-01T05:23:11.694Z,1.70
2018-11-01T05:24:11.682Z,1.60
2018-11-01T05:25:11.683Z,1.90
2018-11-01T05:26:11.674Z,1.60
2018-11-01T05:27:11.648Z,1.60
2018-11-01T05:28:11.638Z,1.90
2018-11-01T05:29:11.628Z,1.80
2018-11-01T05:30:11.615Z,1.70
2018-11-01T05:31:11.616Z,1.70
2018-11-01T05:32:11.607Z,1.80
2018-11-01T05:33:11.584Z,1.80
2018-11-01T05:34:11.577Z,1.90
2018-11-01T05:35:11.561Z,1.50
2018-11-01T05:36:11.551Z,1.70
2018-11-01T05:37:11.552Z,1.70
2018-11-01T05:38:11.570Z,1.60
2018-11-01T05:39:11.518Z,1.70
2018-11-01T05:40:11.509Z,1.80
2018-11-01T05:41:11.496Z,1.60
2018-11-01T05:42:11.500Z,1.90
2018-11-01T05:43:11.475Z,1.80
2018-11-01T05:44:11.479Z,1.80
2018-11-01T05:45:11.454Z,1.70
2018-11-01T05:46:11.443Z,1.70
2018-11-01T05:47:11.442Z,1.70
2018-11-01T05:48:11.436Z,1.60
2018-11-01T05:49:11.412Z,1.70
2018-11-01T05:50:11.399Z,1.70
2018-11-01T05:51:11.390Z,1.60
2018-11-01T05:52:11.378Z,1.60
2018-11-01T05:53:11.378Z,1.40
2018-11-01T05:54:11.367Z,1.60
2018-11-01T05:55:11.347Z,1.60
2018-11-01T05:56:11.335Z,1.80
2018-11-01T05:57:11.323Z,1.50
2018-11-01T05:58:11.340Z,1.60
2018-11-01T05:59:11.302Z,1.70
2018-11-01T06:00:11.292Z,1.80
2018-11-01T06:01:11.282Z,1.80
2018-11-01T06:02:11.269Z,1.70
2018-11-01T06:03:11.262Z,1.70
2018-11-01T06:04:11.275Z,1.40
2018-11-01T06:05:11.241Z,1.80
2018-11-01T06:06:11.229Z,1.70
2018-11-01T06:07:11.215Z,1.40
2018-11-01T06:08:11.209Z,1.70
2018-11-01T06:09:11.194Z,1.50
2018-11-01T06:10:11.196Z,1.60
2018-11-01T06:11:11.176Z,1.60
2018-11-01T06:12:11.211Z,1.40
2018-11-01T06:13:11.164Z,1.70
2018-11-01T06:14:11.178Z,1.30
2018-11-01T06:15:11.130Z,1.60
2018-11-01T06:16:11.119Z,1.50
2018-11-01T06:17:11.109Z,1.40
2018-11-01T06:18:11.096Z,1.40
2018-11-01T06:19:11.088Z,1.60
2018-11-01T06:20:11.089Z,1.70
2018-11-01T06:21:11.064Z,1.70
2018-11-01T06:22:11.066Z,1.30
2018-11-01T06:23:11.047Z,1.50
2018-11-01T06:24:11.068Z,1.40
2018-11-01T06:25:11.021Z,1.60
2018-11-01T06:26:11.017Z,1.30
2018-11-01T06:27:10.999Z,1.30
2018-11-01T06:28:10.989Z,1.20
2018-11-01T06:29:10.978Z,1.50
2018-11-01T06:30:11.028Z,1.20
2018-11-01T06:31:10.956Z,1.40
2018-11-01T06:32:10.944Z,1.70
2018-11-01T06:33:10.934Z,1.80
2018-11-01T06:34:10.934Z,1.60
2018-11-01T06:35:10.912Z,1.40
2018-11-01T06:36:10.901Z,1.70
2018-11-01T06:37:10.891Z,2.00
2018-11-01T06:38:10.881Z,1.90
2018-11-01T06:39:10.883Z,1.80
2018-11-01T06:40:10.859Z,1.80
2018-11-01T06:41:10.847Z,2.10
2018-11-01T06:42:10.864Z,1.90
2018-11-01T06:43:10.830Z,1.80
2018-11-01T06:44:10.815Z,1.90
2018-11-01T06:45:10.804Z,1.70
2018-11-01T06:46:10.797Z,2.00
2018-11-01T06:47:10.787Z,2.00
2018-11-01T06:48:10.787Z,2.00
2018-11-01T06:49:10.764Z,1.80
2018-11-01T06:50:10.783Z,1.80
2018-11-01T06:51:10.741Z,2.10
2018-11-01T06:52:10.730Z,1.80
2018-11-01T06:53:10.720Z,1.90
2018-11-01T06:54:10.721Z,1.70
2018-11-01T06:55:10.699Z,1.70
2018-11-01T06:56:10.701Z,1.90
2018-11-01T06:57:10.678Z,2.00
2018-11-01T06:58:10.725Z,1.90
2018-11-01T06:59:10.732Z,1.90
2018-11-01T07:00:10.644Z,2.10
2018-11-01T07:01:10.635Z,2.10
2018-11-01T07:02:10.624Z,2.00
2018-11-01T07:03:10.626Z,1.70
2018-11-01T07:04:10.602Z,2.10
2018-11-01T07:05:10.590Z,1.60
2018-11-01T07:06:10.592Z,1.90
2018-11-01T07:07:10.571Z,1.80
2018-11-01T07:08:10.559Z,2.30
2018-11-01T07:09:10.561Z,2.00
2018-11-01T07:10:10.543Z,1.80
2018-11-01T07:11:10.525Z,1.90
2018-11-01T07:12:10.519Z,1.90
2018-11-01T07:13:10.507Z,1.60
2018-11-01T07:14:10.508Z,1.60
2018-11-01T07:15:10.483Z,1.70
2018-11-01T07:16:10.491Z,1.50
2018-11-01T07:17:10.528Z,1.80
2018-11-01T07:18:10.450Z,1.40
2018-11-01T07:19:10.444Z,1.80
2018-11-01T07:20:10.432Z,1.40
2018-11-01T07:21:10.418Z,1.40
2018-11-01T07:22:10.406Z,1.60
2018-11-01T07:23:10.408Z,1.40
2018-11-01T07:24:10.386Z,1.40
2018-11-01T07:25:10.432Z,1.40
2018-11-01T07:26:10.527Z,1.30
2018-11-01T07:27:10.352Z,1.50
2018-11-01T07:28:10.373Z,1.60
2018-11-01T07:29:10.332Z,1.60
2018-11-01T07:30:10.320Z,1.80
2018-11-01T07:31:10.310Z,2.40
2018-11-01T07:32:10.304Z,2.30
2018-11-01T07:33:10.289Z,1.70
2018-11-01T07:34:10.291Z,1.70
2018-11-01T07:35:10.266Z,1.70
2018-11-01T07:36:10.268Z,1.60
2018-11-01T07:37:10.282Z,1.40
2018-11-01T07:38:10.236Z,1.60
2018-11-01T07:39:10.225Z,1.80
2018-11-01T07:40:10.214Z,1.70
2018-11-01T07:41:10.203Z,1.50
2018-11-01T07:42:10.205Z,1.50
2018-11-01T07:43:10.181Z,1.70
2018-11-01T07:44:10.200Z,1.80
2018-11-01T07:45:10.159Z,1.90
2018-11-01T07:46:10.148Z,1.90
2018-11-01T07:47:10.138Z,1.70
2018-11-01T07:48:10.129Z,1.50
2018-11-01T07:49:10.117Z,1.90
2018-11-01T07:50:10.140Z,1.90
2018-11-01T07:51:10.095Z,1.70
2018-11-01T07:52:10.092Z,1.80
2018-11-01T07:53:10.099Z,1.70
2018-11-01T07:54:10.061Z,1.70
2018-11-01T07:55:10.065Z,1.70
2018-11-01T07:56:10.043Z,1.70
2018-11-01T07:57:10.031Z,2.00
2018-11-01T07:58:10.050Z,1.90
2018-11-01T07:59:10.006Z,2.20
2018-11-01T08:00:10.031Z,2.20
2018-11-01T08:01:09.984Z,1.70
2018-11-01T08:02:09.977Z,1.90
2018-11-01T08:03:09.964Z,1.90
2018-11-01T08:04:09.951Z,1.80
2018-11-01T08:05:09.941Z,1.70
2018-11-01T08:06:09.985Z,1.50
2018-11-01T08:07:09.920Z,1.90
2018-11-01T08:08:09.908Z,1.90
2018-11-01T08:09:09.951Z,1.70
2018-11-01T08:10:09.902Z,1.90
2018-11-01T08:11:09.889Z,1.90
2018-11-01T08:12:09.864Z,1.90
2018-11-01T08:13:09.853Z,2.10
2018-11-01T08:14:09.844Z,2.30
2018-11-01T08:15:09.833Z,2.20
2018-11-01T08:16:09.850Z,2.50
2018-11-01T08:17:09.809Z,1.80
2018-11-01T08:18:09.797Z,2.10
2018-11-01T08:19:09.787Z,1.90
2018-11-01T08:20:10.089Z,2.10
2018-11-01T08:21:09.931Z,1.90
2018-11-01T08:22:09.786Z,2.00
2018-11-01T08:23:09.751Z,2.10
2018-11-01T08:24:09.732Z,2.90
2018-11-01T08:25:09.720Z,2.20
2018-11-01T08:26:09.719Z,2.60
2018-11-01T08:27:09.699Z,2.10
2018-11-01T08:28:09.919Z,2.30
2018-11-01T08:29:09.677Z,2.30
2018-11-01T08:30:09.666Z,1.80
2018-11-01T08:31:09.656Z,2.00
2018-11-01T08:32:09.645Z,2.20
2018-11-01T08:33:09.633Z,2.40
2018-11-01T08:34:09.637Z,10.30
2018-11-01T08:35:09.612Z,6.40
2018-11-01T08:36:09.601Z,5.20
2018-11-01T08:37:09.592Z,3.80
2018-11-01T08:38:09.580Z,3.20
2018-11-01T08:39:09.656Z,3.40
2018-11-01T08:40:09.561Z,3.80
2018-11-01T08:41:09.549Z,4.10
2018-11-01T08:42:09.537Z,4.40
2018-11-01T08:43:09.526Z,5.50
2018-11-01T08:44:09.515Z,5.60
2018-11-01T08:45:09.543Z,5.00
2018-11-01T08:46:09.492Z,3.80
2018-11-01T08:47:09.483Z,3.50
2018-11-01T08:48:09.472Z,2.80
2018-11-01T08:49:09.505Z,2.70
2018-11-01T08:50:09.529Z,2.10
2018-11-01T08:51:09.454Z,2.20
2018-11-01T08:52:09.428Z,2.10
2018-11-01T08:53:09.449Z,2.20
2018-11-01T08:54:09.410Z,2.10
2018-11-01T08:55:09.397Z,2.20
2018-11-01T08:56:09.385Z,2.10
2018-11-01T08:57:09.374Z,2.10
2018-11-01T08:58:09.364Z,2.20
2018-11-01T08:59:09.394Z,2.20
2018-11-01T09:00:09.341Z,1.50
2018-11-01T09:01:09.331Z,1.80
2018-11-01T09:02:09.320Z,1.90
2018-11-01T09:03:09.310Z,2.10
2018-11-01T09:04:09.374Z,1.40
2018-11-01T09:05:09.315Z,1.60
2018-11-01T09:06:09.276Z,1.50
2018-11-01T09:07:09.265Z,1.70
2018-11-01T09:08:09.316Z,1.60
2018-11-01T09:09:09.247Z,1.50
2018-11-01T09:10:09.235Z,1.70
2018-11-01T09:11:09.236Z,1.60
2018-11-01T09:12:09.211Z,1.70
2018-11-01T09:13:09.226Z,1.50
2018-11-01T09:14:09.189Z,1.20
2018-11-01T09:15:09.183Z,1.50
2018-11-01T09:16:09.180Z,1.40
2018-11-01T09:17:09.156Z,1.40
2018-11-01T09:18:09.144Z,1.40
2018-11-01T09:19:09.143Z,1.80
2018-11-01T09:20:09.126Z,1.30
2018-11-01T09:21:09.130Z,1.80
2018-11-01T09:22:09.101Z,1.40
2018-11-01T09:23:09.091Z,1.70
2018-11-01T09:24:09.078Z,1.70
2018-11-01T09:25:09.081Z,1.60
2018-11-01T09:26:09.058Z,1.90
2018-11-01T09:27:09.132Z,1.90
2018-11-01T09:28:09.035Z,1.70
2018-11-01T09:29:09.040Z,2.00
2018-11-01T09:30:09.014Z,1.90
2018-11-01T09:31:09.002Z,1.90
2018-11-01T09:32:09.028Z,1.80
2018-11-01T09:33:08.986Z,1.90
2018-11-01T09:34:08.969Z,2.10
2018-11-01T09:35:08.959Z,1.90
2018-11-01T09:36:08.952Z,1.70
2018-11-01T09:37:08.937Z,1.90
2018-11-01T09:38:08.940Z,1.80
2018-11-01T09:39:08.915Z,2.00
2018-11-01T09:40:08.903Z,2.20
2018-11-01T09:41:08.892Z,1.90
2018-11-01T09:42:08.881Z,2.10
2018-11-01T09:43:08.911Z,1.80
2018-11-01T09:44:08.861Z,1.70
2018-11-01T09:45:08.848Z,1.70
2018-11-01T09:46:08.998Z,1.80
2018-11-01T09:47:09.177Z,1.80
2018-11-01T09:48:08.817Z,1.90
2018-11-01T09:49:08.822Z,2.00
2018-11-01T09:50:08.795Z,1.70
2018-11-01T09:51:08.785Z,1.70
2018-11-01T09:52:08.772Z,2.00
2018-11-01T09:53:08.774Z,1.70
2018-11-01T09:54:08.750Z,1.80
2018-11-01T09:55:08.739Z,1.80
2018-11-01T09:56:08.773Z,1.80
2018-11-01T09:57:08.717Z,1.50
2018-11-01T09:58:08.721Z,1.60
2018-11-01T09:59:08.695Z,1.80
2018-11-01T10:00:08.696Z,2.00
2018-11-01T10:01:08.774Z,2.00
2018-11-01T10:02:08.666Z,2.00
2018-11-01T10:03:08.655Z,2.00
2018-11-01T10:04:08.642Z,2.30
2018-11-01T10:05:08.662Z,2.50
2018-11-01T10:06:08.725Z,2.30
2018-11-01T10:07:08.849Z,2.00
2018-11-01T10:08:08.602Z,2.40
2018-11-01T10:09:08.586Z,2.10
2018-11-01T10:10:08.576Z,1.80
2018-11-01T10:11:08.587Z,3.20
2018-11-01T10:12:08.558Z,2.10
2018-11-01T10:13:08.546Z,1.90
2018-11-01T10:14:08.531Z,2.20
2018-11-01T10:15:08.569Z,2.10
2018-11-01T10:16:08.649Z,1.90
2018-11-01T10:17:08.771Z,2.00
2018-11-01T10:18:08.941Z,2.20
2018-11-01T10:19:08.508Z,1.70
2018-11-01T10:20:08.475Z,1.70
2018-11-01T10:21:08.461Z,2.00
2018-11-01T10:22:08.704Z,2.10
2018-11-01T10:23:08.492Z,1.80
2018-11-01T10:24:08.422Z,1.80
2018-11-01T10:25:08.428Z,1.60
2018-11-01T10:26:08.399Z,1.60
2018-11-01T10:27:08.391Z,1.70
2018-11-01T10:28:08.384Z,1.60
2018-11-01T10:29:08.407Z,1.60
2018-11-01T10:30:08.356Z,1.60
2018-11-01T10:31:08.345Z,1.90
2018-11-01T10:32:08.332Z,1.90
2018-11-01T10:33:08.323Z,1.70
2018-11-01T10:34:08.440Z,1.70
2018-11-01T10:35:08.318Z,1.60
2018-11-01T10:36:08.290Z,1.70
2018-11-01T10:37:08.283Z,1.60
2018-11-01T10:38:08.268Z,1.40
2018-11-01T10:39:08.256Z,1.70
2018-11-01T10:40:08.259Z,1.40
2018-11-01T10:41:08.235Z,1.70
2018-11-01T10:42:08.227Z,1.40
2018-11-01T10:43:08.212Z,1.50
2018-11-01T10:44:08.202Z,1.50
2018-11-01T10:45:08.206Z,1.70
2018-11-01T10:46:08.181Z,1.60
2018-11-01T10:47:08.174Z,1.60
2018-11-01T10:48:08.157Z,2.40
2018-11-01T10:49:08.147Z,1.60
2018-11-01T10:50:08.148Z,1.90
2018-11-01T10:51:08.125Z,2.10
2018-11-01T10:52:08.113Z,1.70
2018-11-01T10:53:08.103Z,1.70
2018-11-01T10:54:08.152Z,1.80
2018-11-01T10:55:08.111Z,1.80
2018-11-01T10:56:08.069Z,2.40
2018-11-01T10:57:08.059Z,2.10
2018-11-01T10:58:08.047Z,2.00
2018-11-01T10:59:08.039Z,1.90
2018-11-01T11:00:08.120Z,2.30
2018-11-01T11:01:08.115Z,2.00
2018-11-01T11:02:08.015Z,2.10
2018-11-01T11:03:08.012Z,2.40
2018-11-01T11:04:07.985Z,2.00
2018-11-01T11:05:07.972Z,1.90
2018-11-01T11:06:07.962Z,2.10
2018-11-01T11:07:07.949Z,2.00
2018-11-01T11:08:08.001Z,1.90
2018-11-01T11:09:07.929Z,2.10
2018-11-01T11:10:07.919Z,1.90
2018-11-01T11:11:07.907Z,1.80
2018-11-01T11:12:07.897Z,1.90
2018-11-01T11:13:07.900Z,2.30
2018-11-01T11:14:07.883Z,2.00
2018-11-01T11:15:07.865Z,1.90
2018-11-01T11:16:07.857Z,2.00
2018-11-01T11:17:07.845Z,2.00
2018-11-01T11:18:07.859Z,1.70
2018-11-01T11:19:07.822Z,1.60
2018-11-01T11:20:07.833Z,2.00
2018-11-01T11:21:08.085Z,3.30
2018-11-01T11:22:07.794Z,2.10
2018-11-01T11:23:07.779Z,2.00
2018-11-01T11:24:07.782Z,2.10
2018-11-01T11:25:07.759Z,1.90
2018-11-01T11:26:07.747Z,2.00
2018-11-01T11:27:07.742Z,2.00
2018-11-01T11:28:07.725Z,1.90
2018-11-01T11:29:07.747Z,2.10
2018-11-01T11:30:07.738Z,2.10
2018-11-01T11:31:07.715Z,2.10
2018-11-01T11:32:07.682Z,1.90
2018-11-01T11:33:07.673Z,2.20
2018-11-01T11:34:07.659Z,1.90
2018-11-01T11:35:07.673Z,2.10
2018-11-01T11:36:07.639Z,2.90
2018-11-01T11:37:07.629Z,3.00
2018-11-01T11:38:07.623Z,3.20
2018-11-01T11:39:07.696Z,3.90
2018-11-01T11:40:07.608Z,3.60
2018-11-01T11:41:07.586Z,2.40
2018-11-01T11:42:07.574Z,2.20
2018-11-01T11:43:07.563Z,2.20
2018-11-01T11:44:07.552Z,2.40
2018-11-01T11:45:07.555Z,2.20
2018-11-01T11:46:07.529Z,2.50
2018-11-01T11:47:07.520Z,2.40
2018-11-01T11:48:07.518Z,2.20
2018-11-01T11:49:07.497Z,2.40
2018-11-01T11:50:07.488Z,2.20
2018-11-01T11:51:07.479Z,2.30
2018-11-01T11:52:07.479Z,2.60
2018-11-01T11:53:07.463Z,2.50
2018-11-01T11:54:07.456Z,2.50
2018-11-01T11:55:07.443Z,2.30
2018-11-01T11:56:07.451Z,2.30
2018-11-01T11:57:07.555Z,2.60
2018-11-01T11:58:07.504Z,2.30
2018-11-01T11:59:07.423Z,2.10
2018-11-01T12:00:07.410Z,2.50
2018-11-01T12:01:07.414Z,2.50
2018-11-01T12:02:07.406Z,2.40
2018-11-01T12:03:07.358Z,2.50
2018-11-01T12:04:07.397Z,2.20
2018-11-01T12:05:07.328Z,2.30
2018-11-01T12:06:07.525Z,2.10
2018-11-01T12:07:07.301Z,2.10
2018-11-01T12:08:07.300Z,2.20
2018-11-01T12:09:07.280Z,2.10
2018-11-01T12:10:07.283Z,2.30
2018-11-01T12:11:07.258Z,2.50
2018-11-01T12:12:07.247Z,2.30
2018-11-01T12:13:07.251Z,2.50
2018-11-01T12:14:07.311Z,3.20
2018-11-01T12:15:07.214Z,2.60
2018-11-01T12:16:07.202Z,3.70
2018-11-01T12:17:07.229Z,3.10
2018-11-01T12:18:07.187Z,3.40
2018-11-01T12:19:07.171Z,2.90
2018-11-01T12:20:07.170Z,2.90
2018-11-01T12:21:07.160Z,3.50
2018-11-01T12:22:08.092Z,2.70
2018-11-01T12:23:07.155Z,2.70
2018-11-01T12:24:07.115Z,3.00
2018-11-01T12:25:07.104Z,3.30
2018-11-01T12:26:07.093Z,2.90
2018-11-01T12:27:07.082Z,3.00
2018-11-01T12:28:07.070Z,2.80
2018-11-01T12:29:07.217Z,2.70
2018-11-01T12:30:07.083Z,2.80
2018-11-01T12:31:07.038Z,2.60
2018-11-01T12:32:07.028Z,2.30
2018-11-01T12:33:07.017Z,2.80
2018-11-01T12:34:07.006Z,2.40
2018-11-01T12:35:07.095Z,2.60
2018-11-01T12:36:07.034Z,2.50
2018-11-01T12:37:06.973Z,2.70
2018-11-01T12:38:06.962Z,3.00
2018-11-01T12:39:06.951Z,3.20
2018-11-01T12:40:06.940Z,3.00
2018-11-01T12:41:06.945Z,2.70
2018-11-01T12:42:06.918Z,2.90
2018-11-01T12:43:06.920Z,3.10
2018-11-01T12:44:06.894Z,2.80
2018-11-01T12:45:06.885Z,2.70
2018-11-01T12:46:06.874Z,2.70
2018-11-01T12:47:06.863Z,2.80
2018-11-01T12:48:06.866Z,2.80
2018-11-01T12:49:06.839Z,2.60
2018-11-01T12:50:07.030Z,3.00
2018-11-01T12:51:06.818Z,2.90
2018-11-01T12:52:06.822Z,2.90
2018-11-01T12:53:06.811Z,3.20
2018-11-01T12:54:06.790Z,2.80
2018-11-01T12:55:06.775Z,3.10
2018-11-01T12:56:06.790Z,3.00
2018-11-01T12:57:06.754Z,2.50
2018-11-01T12:58:06.781Z,2.80
2018-11-01T12:59:06.732Z,2.50
2018-11-01T13:00:06.721Z,3.10
2018-11-01T13:01:06.709Z,3.00
2018-11-01T13:02:06.698Z,3.20
2018-11-01T13:03:06.688Z,3.20
2018-11-01T13:04:06.690Z,3.30
2018-11-01T13:05:06.666Z,3.40
2018-11-01T13:06:06.656Z,3.30
2018-11-01T13:07:06.646Z,3.30
2018-11-01T13:08:06.638Z,3.20
2018-11-01T13:09:06.635Z,3.00
2018-11-01T13:10:06.612Z,3.10
2018-11-01T13:11:06.618Z,4.80
2018-11-01T13:12:06.593Z,4.50
2018-11-01T13:13:06.592Z,4.80
2018-11-01T13:14:06.568Z,4.20
2018-11-01T13:15:06.557Z,4.10
2018-11-01T13:16:06.576Z,3.40
2018-11-01T13:17:06.534Z,3.00
2018-11-01T13:18:06.568Z,3.00